sensor_id;sensor_type;location;lat;lon;timestamp;pressure;altitude;pressure_sealevel;temperature;humidity
61900;BME280;47853;55.890;37.664;2022-08-01T00:01:16;99602.09;;;19.16;50.37
61900;BME280;47853;55.890;37.664;2022-08-01T00:03:41;99597.50;;;18.91;51.43
61900;BME280;47853;55.890;37.664;2022-08-01T00:06:07;99604.63;;;19.10;51.67
61900;BME280;47853;55.890;37.664;2022-08-01T00:08:32;99601.47;;;19.20;51.21
61900;BME280;47853;55.890;37.664;2022-08-01T00:10:57;99599.00;;;18.87;51.61
61900;BME280;47853;55.890;37.664;2022-08-01T00:13:23;99582.16;;;18.20;52.95
61900;BME280;47853;55.890;37.664;2022-08-01T00:15:48;99594.44;;;18.48;52.84
61900;BME280;47853;55.890;37.664;2022-08-01T00:18:13;99595.94;;;18.37;52.70
61900;BME280;47853;55.890;37.664;2022-08-01T00:20:39;99589.53;;;18.38;53.45
61900;BME280;47853;55.890;37.664;2022-08-01T00:23:04;99586.84;;;18.32;53.30
61900;BME280;47853;55.890;37.664;2022-08-01T00:25:29;99594.81;;;18.13;54.60
61900;BME280;47853;55.890;37.664;2022-08-01T00:27:55;99593.84;;;18.46;53.68
61900;BME280;47853;55.890;37.664;2022-08-01T00:30:21;99583.34;;;18.38;54.53
61900;BME280;47853;55.890;37.664;2022-08-01T00:32:46;99603.66;;;18.66;54.26
61900;BME280;47853;55.890;37.664;2022-08-01T00:35:12;99579.34;;;18.47;54.24
61900;BME280;47853;55.890;37.664;2022-08-01T00:37:37;99599.25;;;18.39;55.14
61900;BME280;47853;55.890;37.664;2022-08-01T00:40:03;99596.56;;;18.39;55.28
61900;BME280;47853;55.890;37.664;2022-08-01T00:42:29;99588.09;;;18.36;54.99
61900;BME280;47853;55.890;37.664;2022-08-01T00:44:54;99594.56;;;18.21;55.79
61900;BME280;47853;55.890;37.664;2022-08-01T00:47:20;99600.16;;;18.20;55.40
61900;BME280;47853;55.890;37.664;2022-08-01T00:49:45;99585.53;;;17.95;56.22
61900;BME280;47853;55.890;37.664;2022-08-01T00:52:10;99596.06;;;17.97;56.45
61900;BME280;47853;55.890;37.664;2022-08-01T00:54:36;99586.19;;;17.77;56.22
61900;BME280;47853;55.890;37.664;2022-08-01T00:57:02;99604.19;;;17.57;56.87
61900;BME280;47853;55.890;37.664;2022-08-01T00:59:28;99583.56;;;17.57;57.49
61900;BME280;47853;55.890;37.664;2022-08-01T01:01:55;99591.19;;;17.53;57.45
61900;BME280;47853;55.890;37.664;2022-08-01T01:04:20;99596.53;;;17.67;57.09
61900;BME280;47853;55.890;37.664;2022-08-01T01:09:34;99588.69;;;17.72;56.55
61900;BME280;47853;55.890;37.664;2022-08-01T01:12:37;99572.00;;;17.36;57.59
61900;BME280;47853;55.890;37.664;2022-08-01T01:17:45;99584.97;;;17.60;56.95
61900;BME280;47853;55.890;37.664;2022-08-01T01:20:13;99581.47;;;17.52;57.52
61900;BME280;47853;55.890;37.664;2022-08-01T01:25:51;99563.91;;;17.63;56.55
61900;BME280;47853;55.890;37.664;2022-08-01T01:31:25;99580.25;;;17.55;56.95
61900;BME280;47853;55.890;37.664;2022-08-01T01:33:52;99583.09;;;17.74;56.52
61900;BME280;47853;55.890;37.664;2022-08-01T01:36:19;99571.75;;;17.72;56.70
61900;BME280;47853;55.890;37.664;2022-08-01T01:38:46;99569.31;;;17.50;57.54
61900;BME280;47853;55.890;37.664;2022-08-01T01:41:14;99580.06;;;17.50;56.98
61900;BME280;47853;55.890;37.664;2022-08-01T01:43:41;99555.69;;;17.31;57.01
61900;BME280;47853;55.890;37.664;2022-08-01T01:46:09;99572.81;;;17.57;56.48
61900;BME280;47853;55.890;37.664;2022-08-01T01:48:35;99580.47;;;17.47;56.79
61900;BME280;47853;55.890;37.664;2022-08-01T01:51:01;99578.63;;;17.34;57.65
61900;BME280;47853;55.890;37.664;2022-08-01T01:53:28;99562.72;;;17.25;57.79
61900;BME280;47853;55.890;37.664;2022-08-01T01:55:57;99561.47;;;17.48;57.06
61900;BME280;47853;55.890;37.664;2022-08-01T01:58:24;99572.38;;;17.53;57.22
61900;BME280;47853;55.890;37.664;2022-08-01T02:00:52;99579.22;;;17.29;57.61
61900;BME280;47853;55.890;37.664;2022-08-01T02:03:19;99575.72;;;17.29;57.80
61900;BME280;47853;55.890;37.664;2022-08-01T02:05:46;99566.44;;;17.24;58.06
61900;BME280;47853;55.890;37.664;2022-08-01T02:08:14;99578.81;;;17.32;57.80
61900;BME280;47853;55.890;37.664;2022-08-01T02:10:40;99573.03;;;17.22;58.42
61900;BME280;47853;55.890;37.664;2022-08-01T02:13:07;99579.63;;;16.99;58.90
61900;BME280;47853;55.890;37.664;2022-08-01T02:15:34;99563.31;;;16.87;59.49
61900;BME280;47853;55.890;37.664;2022-08-01T02:18:01;99578.97;;;16.84;59.61
61900;BME280;47853;55.890;37.664;2022-08-01T02:20:29;99576.25;;;16.63;60.18
61900;BME280;47853;55.890;37.664;2022-08-01T02:23:06;99562.03;;;16.70;60.84
61900;BME280;47853;55.890;37.664;2022-08-01T02:25:44;99565.56;;;16.90;60.37
61900;BME280;47853;55.890;37.664;2022-08-01T02:28:15;99575.28;;;16.98;60.32
61900;BME280;47853;55.890;37.664;2022-08-01T02:30:46;99555.59;;;16.50;60.42
61900;BME280;47853;55.890;37.664;2022-08-01T02:33:16;99577.72;;;16.66;60.95
61900;BME280;47853;55.890;37.664;2022-08-01T02:35:43;99573.22;;;16.80;60.33
61900;BME280;47853;55.890;37.664;2022-08-01T02:38:12;99573.84;;;16.95;59.79
61900;BME280;47853;55.890;37.664;2022-08-01T02:40:42;99557.13;;;16.93;59.96
61900;BME280;47853;55.890;37.664;2022-08-01T02:43:10;99573.47;;;17.25;59.18
61900;BME280;47853;55.890;37.664;2022-08-01T02:45:40;99584.59;;;17.56;58.51
61900;BME280;47853;55.890;37.664;2022-08-01T02:48:17;99587.06;;;17.51;58.78
61900;BME280;47853;55.890;37.664;2022-08-01T02:50:45;99574.06;;;17.34;58.85
61900;BME280;47853;55.890;37.664;2022-08-01T02:53:13;99583.38;;;17.25;59.34
61900;BME280;47853;55.890;37.664;2022-08-01T02:55:41;99570.13;;;16.96;59.60
61900;BME280;47853;55.890;37.664;2022-08-01T02:58:09;99564.16;;;17.01;59.40
61900;BME280;47853;55.890;37.664;2022-08-01T03:00:35;99588.50;;;17.53;58.36
61900;BME280;47853;55.890;37.664;2022-08-01T03:03:03;99579.84;;;17.58;57.79
61900;BME280;47853;55.890;37.664;2022-08-01T03:05:31;99586.81;;;17.79;57.37
61900;BME280;47853;55.890;37.664;2022-08-01T03:07:58;99588.19;;;18.09;56.66
61900;BME280;47853;55.890;37.664;2022-08-01T03:10:26;99582.47;;;17.65;56.54
61900;BME280;47853;55.890;37.664;2022-08-01T03:12:53;99603.19;;;17.51;57.20
61900;BME280;47853;55.890;37.664;2022-08-01T03:15:19;99592.88;;;17.48;57.57
61900;BME280;47853;55.890;37.664;2022-08-01T03:17:47;99586.25;;;17.57;58.02
61900;BME280;47853;55.890;37.664;2022-08-01T03:20:17;99591.81;;;17.35;58.10
61900;BME280;47853;55.890;37.664;2022-08-01T03:22:44;99591.41;;;17.25;58.38
61900;BME280;47853;55.890;37.664;2022-08-01T03:25:13;99590.38;;;17.13;59.50
61900;BME280;47853;55.890;37.664;2022-08-01T03:27:40;99587.47;;;17.01;59.91
61900;BME280;47853;55.890;37.664;2022-08-01T03:30:07;99583.97;;;17.20;58.64
61900;BME280;47853;55.890;37.664;2022-08-01T03:32:33;99582.50;;;17.45;58.27
61900;BME280;47853;55.890;37.664;2022-08-01T03:34:59;99562.31;;;17.08;58.57
61900;BME280;47853;55.890;37.664;2022-08-01T03:37:31;99571.97;;;16.96;59.28
61900;BME280;47853;55.890;37.664;2022-08-01T03:40:09;99561.03;;;16.91;59.86
61900;BME280;47853;55.890;37.664;2022-08-01T03:42:39;99558.16;;;16.99;59.55
61900;BME280;47853;55.890;37.664;2022-08-01T03:45:08;99576.34;;;17.24;58.76
61900;BME280;47853;55.890;37.664;2022-08-01T03:47:36;99570.94;;;17.58;58.13
61900;BME280;47853;55.890;37.664;2022-08-01T03:50:04;99576.91;;;17.73;56.94
61900;BME280;47853;55.890;37.664;2022-08-01T03:52:32;99575.84;;;17.81;56.62
61900;BME280;47853;55.890;37.664;2022-08-01T03:55:04;99575.75;;;18.21;55.96
61900;BME280;47853;55.890;37.664;2022-08-01T03:57:30;99579.78;;;18.44;55.07
61900;BME280;47853;55.890;37.664;2022-08-01T04:00:00;99561.41;;;18.41;55.21
61900;BME280;47853;55.890;37.664;2022-08-01T04:02:28;99581.75;;;18.62;54.77
61900;BME280;47853;55.890;37.664;2022-08-01T04:04:54;99578.34;;;18.80;54.16
61900;BME280;47853;55.890;37.664;2022-08-01T04:07:31;99573.19;;;18.40;53.87
61900;BME280;47853;55.890;37.664;2022-08-01T04:09:57;99579.91;;;18.88;53.77
61900;BME280;47853;55.890;37.664;2022-08-01T04:12:22;99568.44;;;19.06;52.43
61900;BME280;47853;55.890;37.664;2022-08-01T04:14:48;99578.22;;;19.01;52.95
61900;BME280;47853;55.890;37.664;2022-08-01T04:17:15;99570.69;;;19.09;52.46
61900;BME280;47853;55.890;37.664;2022-08-01T04:19:42;99569.91;;;19.53;51.05
61900;BME280;47853;55.890;37.664;2022-08-01T04:22:13;99554.88;;;19.45;50.90
61900;BME280;47853;55.890;37.664;2022-08-01T04:24:41;99559.88;;;19.41;51.35
61900;BME280;47853;55.890;37.664;2022-08-01T04:27:13;99574.09;;;19.49;51.38
61900;BME280;47853;55.890;37.664;2022-08-01T04:29:41;99568.97;;;19.40;52.06
61900;BME280;47853;55.890;37.664;2022-08-01T04:32:08;99567.63;;;19.31;51.90
61900;BME280;47853;55.890;37.664;2022-08-01T04:34:39;99576.31;;;19.52;52.79
61900;BME280;47853;55.890;37.664;2022-08-01T04:37:07;99574.88;;;19.75;52.39
61900;BME280;47853;55.890;37.664;2022-08-01T04:39:34;99556.97;;;19.62;51.16
61900;BME280;47853;55.890;37.664;2022-08-01T04:42:00;99570.69;;;19.97;51.50
61900;BME280;47853;55.890;37.664;2022-08-01T04:44:26;99571.28;;;19.99;50.97
61900;BME280;47853;55.890;37.664;2022-08-01T04:46:52;99567.09;;;19.85;51.31
61900;BME280;47853;55.890;37.664;2022-08-01T04:49:18;99575.88;;;19.99;50.37
61900;BME280;47853;55.890;37.664;2022-08-01T04:51:55;99573.16;;;20.18;49.95
61900;BME280;47853;55.890;37.664;2022-08-01T04:54:20;99570.69;;;20.16;49.99
61900;BME280;47853;55.890;37.664;2022-08-01T04:56:45;99569.34;;;20.07;50.17
61900;BME280;47853;55.890;37.664;2022-08-01T04:59:11;99577.28;;;20.02;49.68
61900;BME280;47853;55.890;37.664;2022-08-01T05:01:36;99580.47;;;20.29;50.22
61900;BME280;47853;55.890;37.664;2022-08-01T05:04:01;99564.41;;;20.22;50.12
61900;BME280;47853;55.890;37.664;2022-08-01T05:06:27;99580.56;;;20.22;49.81
61900;BME280;47853;55.890;37.664;2022-08-01T05:08:52;99564.81;;;20.38;50.02
61900;BME280;47853;55.890;37.664;2022-08-01T05:11:17;99581.56;;;20.58;50.56
61900;BME280;47853;55.890;37.664;2022-08-01T05:13:43;99588.72;;;20.65;49.51
61900;BME280;47853;55.890;37.664;2022-08-01T05:16:08;99579.00;;;20.64;48.50
61900;BME280;47853;55.890;37.664;2022-08-01T05:18:33;99593.41;;;20.69;48.80
61900;BME280;47853;55.890;37.664;2022-08-01T05:20:59;99585.56;;;20.98;47.19
61900;BME280;47853;55.890;37.664;2022-08-01T05:23:24;99588.41;;;21.15;47.65
61900;BME280;47853;55.890;37.664;2022-08-01T05:25:50;99583.69;;;21.11;46.79
61900;BME280;47853;55.890;37.664;2022-08-01T05:28:15;99585.47;;;21.17;46.47
61900;BME280;47853;55.890;37.664;2022-08-01T05:30:40;99571.03;;;21.11;47.25
61900;BME280;47853;55.890;37.664;2022-08-01T05:33:06;99583.16;;;21.68;45.61
61900;BME280;47853;55.890;37.664;2022-08-01T05:35:31;99590.69;;;22.31;44.56
61900;BME280;47853;55.890;37.664;2022-08-01T05:37:56;99580.41;;;22.45;43.83
61900;BME280;47853;55.890;37.664;2022-08-01T05:40:22;99564.16;;;22.74;43.10
61900;BME280;47853;55.890;37.664;2022-08-01T05:42:47;99568.06;;;23.29;42.29
61900;BME280;47853;55.890;37.664;2022-08-01T05:45:12;99575.72;;;23.94;40.81
61900;BME280;47853;55.890;37.664;2022-08-01T05:47:38;99575.63;;;24.78;38.18
61900;BME280;47853;55.890;37.664;2022-08-01T05:50:03;99576.53;;;24.61;38.85
61900;BME280;47853;55.890;37.664;2022-08-01T05:52:29;99567.03;;;24.91;38.27
61900;BME280;47853;55.890;37.664;2022-08-01T05:54:54;99561.81;;;25.60;37.37
61900;BME280;47853;55.890;37.664;2022-08-01T05:57:20;99556.94;;;26.21;36.49
61900;BME280;47853;55.890;37.664;2022-08-01T05:59:45;99560.75;;;26.25;35.47
61900;BME280;47853;55.890;37.664;2022-08-01T06:02:10;99570.69;;;25.88;35.76
61900;BME280;47853;55.890;37.664;2022-08-01T06:04:36;99565.03;;;26.05;35.36
61900;BME280;47853;55.890;37.664;2022-08-01T06:07:01;99578.28;;;26.71;34.42
61900;BME280;47853;55.890;37.664;2022-08-01T06:09:26;99572.88;;;25.91;34.43
61900;BME280;47853;55.890;37.664;2022-08-01T06:11:52;99570.66;;;26.62;33.39
61900;BME280;47853;55.890;37.664;2022-08-01T06:14:17;99572.34;;;26.95;33.84
61900;BME280;47853;55.890;37.664;2022-08-01T06:16:42;99561.88;;;27.79;32.18
61900;BME280;47853;55.890;37.664;2022-08-01T06:19:08;99568.75;;;28.32;30.69
61900;BME280;47853;55.890;37.664;2022-08-01T06:21:33;99551.06;;;28.19;30.78
61900;BME280;47853;55.890;37.664;2022-08-01T06:23:58;99572.13;;;28.59;30.05
61900;BME280;47853;55.890;37.664;2022-08-01T06:26:24;99556.84;;;28.02;30.62
61900;BME280;47853;55.890;37.664;2022-08-01T06:28:55;99570.63;;;27.71;30.96
61900;BME280;47853;55.890;37.664;2022-08-01T06:31:20;99574.63;;;28.50;30.59
61900;BME280;47853;55.890;37.664;2022-08-01T06:33:46;99575.25;;;28.87;29.80
61900;BME280;47853;55.890;37.664;2022-08-01T06:36:11;99565.91;;;28.48;30.05
61900;BME280;47853;55.890;37.664;2022-08-01T06:38:37;99582.41;;;28.72;29.50
61900;BME280;47853;55.890;37.664;2022-08-01T06:41:02;99576.00;;;28.52;29.65
61900;BME280;47853;55.890;37.664;2022-08-01T06:43:27;99579.47;;;28.18;30.48
61900;BME280;47853;55.890;37.664;2022-08-01T06:45:53;99572.16;;;29.28;29.67
61900;BME280;47853;55.890;37.664;2022-08-01T06:48:18;99566.00;;;29.12;29.40
61900;BME280;47853;55.890;37.664;2022-08-01T06:50:43;99579.38;;;27.58;30.90
61900;BME280;47853;55.890;37.664;2022-08-01T06:53:09;99575.47;;;27.90;30.61
61900;BME280;47853;55.890;37.664;2022-08-01T06:55:34;99564.72;;;28.64;29.59
61900;BME280;47853;55.890;37.664;2022-08-01T06:58:00;99561.28;;;28.48;29.91
61900;BME280;47853;55.890;37.664;2022-08-01T07:00:25;99582.16;;;29.38;28.93
61900;BME280;47853;55.890;37.664;2022-08-01T07:02:52;99582.69;;;29.11;28.77
61900;BME280;47853;55.890;37.664;2022-08-01T07:05:18;99583.16;;;28.43;29.98
61900;BME280;47853;55.890;37.664;2022-08-01T07:07:43;99579.59;;;28.43;29.17
61900;BME280;47853;55.890;37.664;2022-08-01T07:10:09;99573.69;;;28.75;29.47
61900;BME280;47853;55.890;37.664;2022-08-01T07:12:35;99583.94;;;29.23;29.13
61900;BME280;47853;55.890;37.664;2022-08-01T07:15:05;99580.69;;;29.21;28.46
61900;BME280;47853;55.890;37.664;2022-08-01T07:17:30;99574.13;;;30.01;27.30
61900;BME280;47853;55.890;37.664;2022-08-01T07:19:56;99574.59;;;30.08;27.11
61900;BME280;47853;55.890;37.664;2022-08-01T07:22:21;99579.69;;;29.42;28.16
61900;BME280;47853;55.890;37.664;2022-08-01T07:24:46;99582.13;;;30.93;26.74
61900;BME280;47853;55.890;37.664;2022-08-01T07:27:12;99591.13;;;31.32;26.01
61900;BME280;47853;55.890;37.664;2022-08-01T07:29:37;99578.25;;;30.80;26.01
61900;BME280;47853;55.890;37.664;2022-08-01T07:32:03;99586.47;;;30.80;25.95
61900;BME280;47853;55.890;37.664;2022-08-01T07:34:28;99585.94;;;30.59;26.09
61900;BME280;47853;55.890;37.664;2022-08-01T07:36:54;99585.81;;;31.35;25.20
61900;BME280;47853;55.890;37.664;2022-08-01T07:39:19;99576.09;;;31.10;25.29
61900;BME280;47853;55.890;37.664;2022-08-01T07:41:47;99571.13;;;31.73;24.55
61900;BME280;47853;55.890;37.664;2022-08-01T07:44:15;99583.50;;;30.57;26.16
61900;BME280;47853;55.890;37.664;2022-08-01T07:46:40;99587.69;;;31.54;24.33
61900;BME280;47853;55.890;37.664;2022-08-01T07:49:06;99563.25;;;32.73;23.01
61900;BME280;47853;55.890;37.664;2022-08-01T07:51:31;99572.63;;;33.26;22.79
61900;BME280;47853;55.890;37.664;2022-08-01T07:53:56;99582.22;;;32.83;22.14
61900;BME280;47853;55.890;37.664;2022-08-01T07:56:22;99574.28;;;32.82;22.56
61900;BME280;47853;55.890;37.664;2022-08-01T07:58:47;99579.72;;;32.73;22.78
61900;BME280;47853;55.890;37.664;2022-08-01T08:01:12;99567.97;;;32.81;22.50
61900;BME280;47853;55.890;37.664;2022-08-01T08:03:38;99576.97;;;33.91;21.84
61900;BME280;47853;55.890;37.664;2022-08-01T08:06:03;99570.72;;;34.43;20.82
61900;BME280;47853;55.890;37.664;2022-08-01T08:08:29;99566.75;;;32.14;22.87
61900;BME280;47853;55.890;37.664;2022-08-01T08:10:54;99582.44;;;32.00;23.04
61900;BME280;47853;55.890;37.664;2022-08-01T08:13:20;99551.31;;;31.62;23.67
61900;BME280;47853;55.890;37.664;2022-08-01T08:15:45;99571.69;;;32.40;23.01
61900;BME280;47853;55.890;37.664;2022-08-01T08:18:10;99558.13;;;33.75;22.51
61900;BME280;47853;55.890;37.664;2022-08-01T08:20:36;99566.50;;;32.75;22.97
61900;BME280;47853;55.890;37.664;2022-08-01T08:23:01;99575.50;;;31.74;23.71
61900;BME280;47853;55.890;37.664;2022-08-01T08:25:27;99547.72;;;31.20;24.14
61900;BME280;47853;55.890;37.664;2022-08-01T08:27:52;99566.09;;;33.13;22.81
61900;BME280;47853;55.890;37.664;2022-08-01T08:30:18;99567.22;;;33.84;21.66
61900;BME280;47853;55.890;37.664;2022-08-01T08:32:43;99560.22;;;32.61;23.40
61900;BME280;47853;55.890;37.664;2022-08-01T08:35:09;99567.03;;;32.26;23.75
61900;BME280;47853;55.890;37.664;2022-08-01T08:37:35;99569.66;;;30.67;25.54
61900;BME280;47853;55.890;37.664;2022-08-01T08:40:01;99571.00;;;33.57;22.01
61900;BME280;47853;55.890;37.664;2022-08-01T08:42:27;99556.78;;;35.01;20.33
61900;BME280;47853;55.890;37.664;2022-08-01T08:44:52;99554.81;;;34.13;21.41
61900;BME280;47853;55.890;37.664;2022-08-01T08:47:18;99530.19;;;34.17;20.80
61900;BME280;47853;55.890;37.664;2022-08-01T08:49:44;99554.50;;;33.25;21.27
61900;BME280;47853;55.890;37.664;2022-08-01T08:52:10;99554.97;;;34.88;20.43
61900;BME280;47853;55.890;37.664;2022-08-01T08:54:37;99560.81;;;35.51;19.66
61900;BME280;47853;55.890;37.664;2022-08-01T08:57:05;99548.50;;;34.83;20.74
61900;BME280;47853;55.890;37.664;2022-08-01T08:59:30;99518.88;;;33.20;21.17
61900;BME280;47853;55.890;37.664;2022-08-01T09:01:57;99554.16;;;33.18;21.42
61900;BME280;47853;55.890;37.664;2022-08-01T09:04:23;99558.72;;;32.04;22.40
61900;BME280;47853;55.890;37.664;2022-08-01T09:06:49;99558.47;;;31.77;23.15
61900;BME280;47853;55.890;37.664;2022-08-01T09:09:15;99531.69;;;32.71;21.88
61900;BME280;47853;55.890;37.664;2022-08-01T09:11:40;99560.03;;;34.59;20.37
61900;BME280;47853;55.890;37.664;2022-08-01T09:14:09;99556.34;;;33.70;20.28
61900;BME280;47853;55.890;37.664;2022-08-01T09:16:37;99552.59;;;33.03;21.65
61900;BME280;47853;55.890;37.664;2022-08-01T09:19:17;99540.31;;;32.55;20.93
61900;BME280;47853;55.890;37.664;2022-08-01T09:22:04;99542.16;;;35.01;19.64
61900;BME280;47853;55.890;37.664;2022-08-01T09:24:32;99536.91;;;35.17;18.29
61900;BME280;47853;55.890;37.664;2022-08-01T09:26:58;99528.31;;;35.87;18.27
61900;BME280;47853;55.890;37.664;2022-08-01T09:29:27;99544.41;;;35.55;17.66
61900;BME280;47853;55.890;37.664;2022-08-01T09:31:53;99524.19;;;36.78;16.53
61900;BME280;47853;55.890;37.664;2022-08-01T09:34:30;99535.81;;;37.42;16.22
61900;BME280;47853;55.890;37.664;2022-08-01T09:36:59;99543.53;;;35.72;17.36
61900;BME280;47853;55.890;37.664;2022-08-01T09:39:29;99530.97;;;34.97;18.27
61900;BME280;47853;55.890;37.664;2022-08-01T09:41:57;99531.97;;;35.40;18.10
61900;BME280;47853;55.890;37.664;2022-08-01T09:44:44;99535.53;;;36.52;17.71
61900;BME280;47853;55.890;37.664;2022-08-01T09:47:10;99527.28;;;37.23;16.35
61900;BME280;47853;55.890;37.664;2022-08-01T09:49:39;99531.94;;;37.68;16.18
61900;BME280;47853;55.890;37.664;2022-08-01T09:52:22;99534.09;;;39.14;14.80
61900;BME280;47853;55.890;37.664;2022-08-01T09:55:14;99535.00;;;36.71;17.05
61900;BME280;47853;55.890;37.664;2022-08-01T09:57:56;99538.47;;;34.26;18.78
61900;BME280;47853;55.890;37.664;2022-08-01T10:00:21;99524.22;;;34.50;18.83
61900;BME280;47853;55.890;37.664;2022-08-01T10:02:46;99529.53;;;33.45;20.34
61900;BME280;47853;55.890;37.664;2022-08-01T10:05:12;99517.72;;;34.64;18.84
61900;BME280;47853;55.890;37.664;2022-08-01T10:08:01;99516.03;;;35.46;18.19
61900;BME280;47853;55.890;37.664;2022-08-01T10:10:26;99518.34;;;35.95;17.53
61900;BME280;47853;55.890;37.664;2022-08-01T10:12:52;99522.31;;;35.85;17.80
61900;BME280;47853;55.890;37.664;2022-08-01T10:15:18;99511.69;;;36.38;16.95
61900;BME280;47853;55.890;37.664;2022-08-01T10:17:55;99516.06;;;35.37;17.94
61900;BME280;47853;55.890;37.664;2022-08-01T10:20:23;99510.69;;;33.87;19.86
61900;BME280;47853;55.890;37.664;2022-08-01T10:22:49;99506.75;;;33.21;20.25
61900;BME280;47853;55.890;37.664;2022-08-01T10:25:17;99511.09;;;33.45;20.28
61900;BME280;47853;55.890;37.664;2022-08-01T10:27:45;99508.25;;;34.91;18.89
61900;BME280;47853;55.890;37.664;2022-08-01T10:30:13;99517.19;;;34.88;19.67
61900;BME280;47853;55.890;37.664;2022-08-01T10:32:39;99507.19;;;34.31;19.77
61900;BME280;47853;55.890;37.664;2022-08-01T10:35:05;99513.56;;;33.73;20.23
61900;BME280;47853;55.890;37.664;2022-08-01T10:37:33;99503.84;;;31.90;22.19
61900;BME280;47853;55.890;37.664;2022-08-01T10:39:59;99489.06;;;31.02;23.26
61900;BME280;47853;55.890;37.664;2022-08-01T10:42:25;99514.25;;;29.94;24.33
61900;BME280;47853;55.890;37.664;2022-08-01T10:44:51;99520.34;;;30.67;24.03
61900;BME280;47853;55.890;37.664;2022-08-01T10:47:22;99508.66;;;30.43;24.22
61900;BME280;47853;55.890;37.664;2022-08-01T10:50:00;99504.50;;;29.88;25.50
61900;BME280;47853;55.890;37.664;2022-08-01T10:52:27;99489.91;;;29.49;25.82
61900;BME280;47853;55.890;37.664;2022-08-01T10:55:04;99507.78;;;29.36;25.99
61900;BME280;47853;55.890;37.664;2022-08-01T10:57:47;99509.31;;;29.23;26.09
61900;BME280;47853;55.890;37.664;2022-08-01T11:00:19;99492.38;;;28.91;26.42
61900;BME280;47853;55.890;37.664;2022-08-01T11:02:58;99500.78;;;29.00;26.31
61900;BME280;47853;55.890;37.664;2022-08-01T11:05:24;99489.78;;;28.41;26.70
61900;BME280;47853;55.890;37.664;2022-08-01T11:07:54;99486.13;;;28.11;27.01
61900;BME280;47853;55.890;37.664;2022-08-01T11:10:39;99498.38;;;28.59;26.86
61900;BME280;47853;55.890;37.664;2022-08-01T11:13:05;99496.75;;;28.92;26.29
61900;BME280;47853;55.890;37.664;2022-08-01T11:15:30;99492.38;;;28.97;26.45
61900;BME280;47853;55.890;37.664;2022-08-01T11:17:56;99491.44;;;28.72;27.27
61900;BME280;47853;55.890;37.664;2022-08-01T11:28:21;99486.34;;;28.60;27.37
61900;BME280;47853;55.890;37.664;2022-08-01T11:30:51;99480.50;;;28.42;26.99
61900;BME280;47853;55.890;37.664;2022-08-01T11:33:19;99479.44;;;28.73;26.80
61900;BME280;47853;55.890;37.664;2022-08-01T11:38:43;99484.00;;;29.36;25.91
61900;BME280;47853;55.890;37.664;2022-08-01T11:44:01;99483.69;;;28.15;27.98
61900;BME280;47853;55.890;37.664;2022-08-01T11:52:30;99476.56;;;28.88;26.72
61900;BME280;47853;55.890;37.664;2022-08-01T11:55:07;99484.34;;;30.74;24.57
61900;BME280;47853;55.890;37.664;2022-08-01T11:57:33;99481.25;;;31.09;23.95
61900;BME280;47853;55.890;37.664;2022-08-01T12:00:15;99479.69;;;30.56;24.08
61900;BME280;47853;55.890;37.664;2022-08-01T12:02:41;99471.59;;;30.98;23.29
61900;BME280;47853;55.890;37.664;2022-08-01T12:05:11;99453.22;;;30.32;24.33
61900;BME280;47853;55.890;37.664;2022-08-01T12:07:37;99465.88;;;29.89;24.59
61900;BME280;47853;55.890;37.664;2022-08-01T12:10:17;99462.34;;;29.89;24.46
61900;BME280;47853;55.890;37.664;2022-08-01T12:12:54;99455.00;;;29.84;25.14
61900;BME280;47853;55.890;37.664;2022-08-01T12:15:22;99446.50;;;30.05;24.38
61900;BME280;47853;55.890;37.664;2022-08-01T12:17:59;99441.84;;;30.58;23.96
61900;BME280;47853;55.890;37.664;2022-08-01T12:20:31;99452.38;;;30.17;24.18
61900;BME280;47853;55.890;37.664;2022-08-01T12:23:03;99441.50;;;29.49;25.07
61900;BME280;47853;55.890;37.664;2022-08-01T12:25:29;99426.19;;;30.11;24.21
61900;BME280;47853;55.890;37.664;2022-08-01T12:27:54;99445.75;;;30.71;23.51
61900;BME280;47853;55.890;37.664;2022-08-01T12:30:21;99455.09;;;31.31;23.26
61900;BME280;47853;55.890;37.664;2022-08-01T12:32:47;99451.53;;;31.16;23.08
61900;BME280;47853;55.890;37.664;2022-08-01T12:35:27;99452.72;;;31.10;23.00
61900;BME280;47853;55.890;37.664;2022-08-01T12:37:54;99454.34;;;31.11;23.20
61900;BME280;47853;55.890;37.664;2022-08-01T12:40:22;99441.22;;;31.78;22.69
61900;BME280;47853;55.890;37.664;2022-08-01T12:42:51;99449.78;;;32.59;21.26
61900;BME280;47853;55.890;37.664;2022-08-01T12:45:19;99449.94;;;34.54;19.97
61900;BME280;47853;55.890;37.664;2022-08-01T12:47:46;99452.44;;;34.94;18.68
61900;BME280;47853;55.890;37.664;2022-08-01T12:50:15;99451.09;;;36.33;17.80
61900;BME280;47853;55.890;37.664;2022-08-01T12:52:41;99450.72;;;35.59;17.67
61900;BME280;47853;55.890;37.664;2022-08-01T12:55:14;99448.59;;;34.78;18.41
61900;BME280;47853;55.890;37.664;2022-08-01T12:57:42;99445.09;;;34.16;18.73
61900;BME280;47853;55.890;37.664;2022-08-01T13:02:45;99443.38;;;35.63;18.13
61900;BME280;47853;55.890;37.664;2022-08-01T13:05:11;99433.81;;;36.03;17.42
61900;BME280;47853;55.890;37.664;2022-08-01T13:07:50;99440.06;;;36.79;17.10
61900;BME280;47853;55.890;37.664;2022-08-01T13:10:26;99436.28;;;37.46;16.32
61900;BME280;47853;55.890;37.664;2022-08-01T13:12:54;99430.19;;;37.94;16.03
61900;BME280;47853;55.890;37.664;2022-08-01T13:15:26;99429.16;;;38.27;15.72
61900;BME280;47853;55.890;37.664;2022-08-01T13:17:53;99423.13;;;37.96;15.94
61900;BME280;47853;55.890;37.664;2022-08-01T13:20:32;99419.03;;;35.98;17.83
61900;BME280;47853;55.890;37.664;2022-08-01T13:23:18;99419.13;;;34.43;19.79
61900;BME280;47853;55.890;37.664;2022-08-01T13:26:02;99418.47;;;34.64;19.37
61900;BME280;47853;55.890;37.664;2022-08-01T13:28:28;99412.03;;;34.90;19.09